createdAt,value
2023-03-06T00:04:26.127Z,3
2023-03-06T00:24:27.327Z,3
2023-03-06T00:34:27.528Z,3
2023-03-06T00:44:27.830Z,2.9
2023-03-06T01:04:28.913Z,2.9
2023-03-06T01:14:29.180Z,2.9
2023-03-06T01:24:35.496Z,2.9
2023-03-06T01:34:35.872Z,2.8
2023-03-06T01:44:36.466Z,2.8
2023-03-06T02:04:37.211Z,2.7
2023-03-06T02:14:37.557Z,2.7
2023-03-06T02:44:38.697Z,2.6
2023-03-06T03:04:39.458Z,2.6
2023-03-06T03:24:40.187Z,2.5
2023-03-06T03:34:40.866Z,2.5
2023-03-06T03:44:41.520Z,2.5
2023-03-06T03:54:42.483Z,2.5
2023-03-06T04:04:43.518Z,2.4
2023-03-06T04:14:43.680Z,2.4
2023-03-06T04:24:44.477Z,2.4
2023-03-06T04:34:44.734Z,2.3
2023-03-06T04:44:45.373Z,2.2
2023-03-06T04:54:53.450Z,2.2
2023-03-06T05:04:52.193Z,2.2
2023-03-06T05:24:53.067Z,2.2
2023-03-06T05:34:54.013Z,2.2
2023-03-06T05:44:54.470Z,2.2
2023-03-06T05:54:55.210Z,2.2
2023-03-06T06:04:56.187Z,2.2
2023-03-06T06:34:57.980Z,2.2
2023-03-06T06:44:58.784Z,2.2
2023-03-06T06:54:59.566Z,2.2
2023-03-06T07:05:04.418Z,2.3
2023-03-06T07:15:00.497Z,2.3
2023-03-06T07:25:00.891Z,2.4
2023-03-06T07:35:18.882Z,2.4
2023-03-06T07:45:01.768Z,2.5
2023-03-06T07:55:02.011Z,2.6
2023-03-06T08:05:03.061Z,2.5
2023-03-06T08:15:03.196Z,2.3
2023-03-06T08:25:03.413Z,2.2
2023-03-06T08:35:04.061Z,2.2
2023-03-06T08:45:04.257Z,2.3
2023-03-06T09:05:05.339Z,2.5
2023-03-06T09:35:07.657Z,3.3
2023-03-06T09:45:07.884Z,3.3
2023-03-06T10:25:10.755Z,3.1
2023-03-06T10:45:11.723Z,3.3
2023-03-06T10:55:12.763Z,3.4
2023-03-06T11:05:13.599Z,3.8
2023-03-06T11:15:13.778Z,4.9
2023-03-06T11:25:14.454Z,5
2023-03-06T11:35:14.935Z,4.9
2023-03-06T11:45:15.092Z,4.5
2023-03-06T11:55:15.736Z,4.7
2023-03-06T12:05:16.113Z,5
2023-03-06T12:15:16.581Z,5.4
2023-03-06T12:25:17.330Z,5.6
2023-03-06T12:45:18.673Z,5.1
2023-03-06T12:55:22.755Z,5.2
2023-03-06T13:05:19.665Z,5.4
2023-03-06T13:15:20.623Z,5.9
2023-03-06T13:25:20.868Z,6
2023-03-06T13:45:22.004Z,6.2
2023-03-06T13:55:22.575Z,5.9
2023-03-06T14:35:24.893Z,6.8
2023-03-06T14:55:26.067Z,6.7
2023-03-06T15:45:29.183Z,6.7
2023-03-06T15:55:29.502Z,6.5
2023-03-06T16:15:31.238Z,6.4
2023-03-06T16:25:31.598Z,6.2
2023-03-06T16:35:32.677Z,6
2023-03-06T16:45:33.240Z,5.9
2023-03-06T16:55:34.249Z,5.8
2023-03-06T17:05:35.316Z,5.7
2023-03-06T17:15:35.736Z,4.9
2023-03-06T17:25:36.814Z,4.4
2023-03-06T17:35:37.893Z,4.3
2023-03-06T17:45:38.242Z,4.3
2023-03-06T17:55:38.610Z,4.3
2023-03-06T18:05:38.744Z,4.4
2023-03-06T18:15:39.417Z,4.4
2023-03-06T18:25:39.708Z,4.5
2023-03-06T18:35:39.923Z,4.5
2023-03-06T18:45:40.642Z,4.4
2023-03-06T19:15:41.920Z,4.4
2023-03-06T19:25:42.718Z,4.3
2023-03-06T19:35:43.369Z,4.3
2023-03-06T19:45:44.573Z,4.3
2023-03-06T19:55:45.281Z,4.2
2023-03-06T20:15:47.326Z,4.4
2023-03-06T20:25:47.537Z,4.4
2023-03-06T20:35:47.905Z,4.4
2023-03-06T20:45:48.569Z,4.4
2023-03-06T20:55:50.018Z,4.5
2023-03-06T21:05:49.695Z,4.5
2023-03-06T21:15:49.797Z,4.5
2023-03-06T21:35:51.053Z,4.3
2023-03-06T21:45:52.126Z,4.2
2023-03-06T21:55:52.206Z,4.1
2023-03-06T22:05:52.336Z,4
2023-03-06T22:15:53.400Z,3.8
2023-03-06T22:25:53.775Z,3.5
2023-03-06T22:35:54.301Z,3.3
2023-03-06T22:45:55.159Z,3.1
2023-03-06T22:55:55.748Z,3.1
2023-03-06T23:15:56.462Z,3.3
2023-03-06T23:25:56.959Z,3.6
2023-03-06T23:35:57.657Z,3.7
2023-03-06T23:45:57.879Z,3.7
2023-03-06T23:55:58.478Z,3.8
